Time;durP1;ratioP1;P1;durP2;ratioP2;P2;SDS_P1;SDS_P2;PMS_P1;PMS_P2;Temp;Humidity;BMP_temperature;BMP_pressure;BME280_temperature;BME280_humidity;BME280_pressure;Samples;Min_cycle;Max_cycle;Signal;HPM_P1;HPM_P2
2022/04/07 00:01:23;;;;;;;5.93;3.60;;;9.70;1.00;;;;;;4943549;28;20662;-65
2022/04/07 00:03:50;;;;;;;5.70;3.57;;;9.60;1.00;;;;;;4942940;28;20286;-67
2022/04/07 00:06:18;;;;;;;5.83;3.07;;;9.60;1.00;;;;;;4938574;29;20287;-65
2022/04/07 00:08:47;;;;;;;4.00;2.63;;;9.60;1.00;;;;;;4941986;28;20207;-67
2022/04/07 00:11:19;;;;;;;3.87;2.47;;;9.50;1.00;;;;;;4940354;28;20662;-66
2022/04/07 00:13:45;;;;;;;4.30;2.47;;;9.50;1.00;;;;;;4927491;28;20323;-68
2022/04/07 00:16:12;;;;;;;3.07;2.70;;;9.50;1.00;;;;;;4913681;29;20237;-68
2022/04/07 00:18:39;;;;;;;4.07;2.83;;;9.50;1.00;;;;;;4917147;29;20241;-68
2022/04/07 00:21:06;;;;;;;4.00;2.67;;;9.50;1.00;;;;;;4944285;29;20218;-66
2022/04/07 00:23:34;;;;;;;4.13;2.90;;;9.50;1.00;;;;;;4925388;28;20195;-67
2022/04/07 00:26:03;;;;;;;7.37;4.07;;;9.50;1.00;;;;;;4943106;28;20242;-67
2022/04/07 00:28:32;;;;;;;6.40;3.80;;;9.50;1.00;;;;;;4944401;28;21078;-70
2022/04/07 00:31:02;;;;;;;6.17;3.23;;;9.50;1.00;;;;;;4952011;28;20727;-69
2022/04/07 00:33:29;;;;;;;5.87;3.40;;;9.60;1.00;;;;;;4957342;28;20238;-67
2022/04/07 00:35:56;;;;;;;4.43;3.00;;;9.50;1.00;;;;;;4950305;28;20581;-65
2022/04/07 00:38:26;;;;;;;3.03;2.60;;;9.60;1.00;;;;;;4938044;28;20214;-64
2022/04/07 00:40:53;;;;;;;3.93;2.87;;;9.60;1.00;;;;;;4958676;28;20258;-64
2022/04/07 00:43:31;;;;;;;3.13;2.63;;;9.50;1.00;;;;;;4941496;28;20199;-66
2022/04/07 00:45:59;;;;;;;4.07;2.50;;;9.60;1.00;;;;;;4944979;28;20198;-69
2022/04/07 00:48:27;;;;;;;4.23;2.20;;;9.50;1.00;;;;;;4943074;28;20686;-66
2022/04/07 00:50:55;;;;;;;4.43;2.27;;;9.60;1.00;;;;;;4941098;28;20205;-65
2022/04/07 00:53:24;;;;;;;4.23;2.23;;;9.60;99.90;;;;;;4941406;28;20248;-66
2022/04/07 00:55:51;;;;;;;2.63;1.90;;;9.60;99.90;;;;;;4955233;28;20202;-66
2022/04/07 00:58:23;;;;;;;6.13;1.73;;;9.60;99.90;;;;;;4955859;28;20229;-65
2022/04/07 01:00:50;;;;;;;1.63;1.53;;;9.60;99.90;;;;;;4942027;28;20226;-65
2022/04/07 01:03:17;;;;;;;2.43;1.67;;;9.50;99.90;;;;;;4934192;28;20206;-65
2022/04/07 01:05:45;;;;;;;4.27;1.60;;;9.50;99.90;;;;;;4961103;28;20217;-65
2022/04/07 01:08:14;;;;;;;3.60;1.90;;;9.50;99.90;;;;;;4938857;28;20409;-65
2022/04/07 01:10:43;;;;;;;2.17;1.53;;;9.40;99.90;;;;;;4957270;28;20201;-65
2022/04/07 01:13:13;;;;;;;4.93;1.67;;;9.40;99.90;;;;;;4943138;28;20339;-65
2022/04/07 01:15:43;;;;;;;3.17;1.60;;;9.40;99.90;;;;;;4961892;28;20253;-66
2022/04/07 01:18:10;;;;;;;3.57;1.67;;;9.50;99.90;;;;;;4961026;28;20653;-65
2022/04/07 01:20:38;;;;;;;6.20;1.73;;;9.50;92.20;;;;;;4941572;28;20245;-67
2022/04/07 01:23:07;;;;;;;2.83;1.60;;;9.50;95.20;;;;;;4956354;28;20700;-64
2022/04/07 01:25:39;;;;;;;2.00;1.60;;;9.50;47.70;;;;;;4957609;28;20864;-64
2022/04/07 01:28:06;;;;;;;3.80;1.60;;;9.60;9.20;;;;;;4960879;28;20830;-65
2022/04/07 01:30:36;;;;;;;2.90;1.70;;;9.60;4.40;;;;;;4960965;28;20237;-66
2022/04/07 01:33:08;;;;;;;3.40;1.50;;;9.60;1.00;;;;;;4959789;28;20261;-64
2022/04/07 01:35:35;;;;;;;1.83;1.30;;;9.60;1.00;;;;;;4959817;28;20245;-65
2022/04/07 01:38:02;;;;;;;2.77;1.57;;;9.60;1.00;;;;;;4963099;28;20281;-67
2022/04/07 01:40:33;;;;;;;5.10;1.70;;;9.50;1.00;;;;;;4948912;28;20257;-66
2022/04/07 01:43:05;;;;;;;3.93;1.50;;;9.50;1.00;;;;;;4944160;28;20705;-65
2022/04/07 01:45:36;;;;;;;2.50;1.60;;;9.50;1.00;;;;;;4929352;28;20884;-66
2022/04/07 01:48:03;;;;;;;3.00;1.40;;;9.50;1.00;;;;;;4959606;28;20213;-65
2022/04/07 01:50:32;;;;;;;4.13;1.87;;;9.50;1.00;;;;;;4956134;28;20200;-65
2022/04/07 01:52:59;;;;;;;2.80;1.90;;;9.40;1.00;;;;;;4958987;28;20242;-63
2022/04/07 01:55:27;;;;;;;3.47;1.80;;;9.40;1.00;;;;;;4958697;28;20613;-66
2022/04/07 01:57:55;;;;;;;3.67;1.70;;;9.50;1.00;;;;;;4955028;28;20194;-64
2022/04/07 02:00:25;;;;;;;3.27;1.70;;;9.50;1.00;;;;;;4942000;28;20294;-67
2022/04/07 02:02:52;;;;;;;4.63;1.60;;;9.50;1.00;;;;;;4928815;28;20273;-68
2022/04/07 02:05:19;;;;;;;4.47;1.90;;;9.40;1.00;;;;;;4936462;28;20424;-68
2022/04/07 02:07:46;;;;;;;5.30;1.70;;;9.40;1.00;;;;;;4966248;28;20248;-65
2022/04/07 02:10:15;;;;;;;5.33;1.80;;;9.50;1.00;;;;;;4943145;28;20282;-67
2022/04/07 02:12:43;;;;;;;4.53;2.17;;;9.50;1.00;;;;;;4946079;28;20202;-66
2022/04/07 02:15:12;;;;;;;4.90;1.93;;;9.60;1.00;;;;;;4945564;28;20622;-67
2022/04/07 02:17:48;;;;;;;2.47;1.70;;;9.50;1.00;;;;;;4931569;28;20257;-66
2022/04/07 02:20:15;;;;;;;7.67;1.93;;;9.50;1.00;;;;;;4945045;28;20213;-65
2022/04/07 02:22:43;;;;;;;3.83;1.60;;;9.60;1.00;;;;;;4945269;28;20278;-66
2022/04/07 02:25:14;;;;;;;4.00;1.60;;;9.60;1.00;;;;;;4947297;28;20238;-67
2022/04/07 02:27:42;;;;;;;6.67;1.60;;;9.60;1.00;;;;;;4941752;28;20576;-67
2022/04/07 02:30:11;;;;;;;1.67;1.30;;;9.60;1.00;;;;;;4943727;28;20217;-65
2022/04/07 02:32:39;;;;;;;4.30;1.97;;;9.70;1.00;;;;;;4961585;28;20222;-64
2022/04/07 02:35:10;;;;;;;4.30;1.97;;;9.70;1.00;;;;;;4960952;28;20203;-64
2022/04/07 02:37:42;;;;;;;2.17;1.20;;;9.80;1.00;;;;;;4942660;28;20266;-65
2022/04/07 02:40:10;;;;;;;6.97;1.67;;;9.80;1.00;;;;;;4961236;28;20230;-65
2022/04/07 02:42:37;;;;;;;3.93;1.23;;;9.90;1.00;;;;;;4960757;28;20198;-65
2022/04/07 02:45:05;;;;;;;3.07;1.43;;;9.90;1.00;;;;;;4960543;28;20672;-65
2022/04/07 02:47:35;;;;;;;2.17;1.43;;;9.90;1.00;;;;;;4963143;28;20612;-68
2022/04/07 02:50:05;;;;;;;4.60;1.70;;;9.90;1.00;;;;;;4948503;28;20213;-67
2022/04/07 02:52:36;;;;;;;4.30;1.50;;;9.80;1.00;;;;;;4954496;28;20258;-66
2022/04/07 02:55:04;;;;;;;2.40;1.40;;;9.80;1.00;;;;;;4950871;28;20588;-64
2022/04/07 02:57:32;;;;;;;3.60;1.80;;;9.90;1.00;;;;;;4960744;28;20620;-66
2022/04/07 02:59:59;;;;;;;3.43;1.70;;;9.80;1.00;;;;;;4934087;28;20198;-64
2022/04/07 03:02:27;;;;;;;3.27;1.60;;;9.80;1.00;;;;;;4942097;28;20187;-65
2022/04/07 03:04:54;;;;;;;2.57;1.63;;;9.80;1.00;;;;;;4944226;28;20222;-64
2022/04/07 03:07:22;;;;;;;3.00;1.57;;;9.80;1.00;;;;;;4950579;28;21176;-66
2022/04/07 03:09:49;;;;;;;3.10;1.47;;;9.70;1.00;;;;;;4949382;28;20576;-67
2022/04/07 03:12:17;;;;;;;7.23;1.60;;;9.70;1.00;;;;;;4950260;28;20613;-65
2022/04/07 03:14:44;;;;;;;12.77;3.00;;;9.70;1.00;;;;;;4959296;28;20221;-66
2022/04/07 03:17:11;;;;;;;3.03;2.17;;;9.70;1.00;;;;;;4932730;28;20658;-66
2022/04/07 03:19:38;;;;;;;4.87;2.13;;;9.80;1.00;;;;;;4951672;28;20209;-65
2022/04/07 03:22:05;;;;;;;2.30;1.60;;;9.70;1.00;;;;;;4957598;28;20678;-66
2022/04/07 03:24:34;;;;;;;4.90;3.00;;;9.80;1.00;;;;;;4936310;28;20326;-67
2022/04/07 03:27:06;;;;;;;3.03;2.43;;;9.70;1.00;;;;;;4940116;28;20205;-65
2022/04/07 03:29:34;;;;;;;3.10;1.80;;;9.70;1.00;;;;;;4963976;28;20206;-65
2022/04/07 03:32:02;;;;;;;3.77;1.90;;;9.70;1.00;;;;;;4945737;28;20213;-65
2022/04/07 03:34:29;;;;;;;5.30;1.63;;;9.70;3.80;;;;;;4961764;28;20207;-65
2022/04/07 03:36:59;;;;;;;3.90;1.70;;;9.70;1.00;;;;;;4949821;28;20207;-65
2022/04/07 03:39:28;;;;;;;3.37;1.60;;;9.60;1.00;;;;;;4961461;28;20206;-66
2022/04/07 03:41:55;;;;;;;3.40;1.90;;;9.60;57.00;;;;;;4943218;28;21188;-64
2022/04/07 03:44:28;;;;;;;5.90;1.87;;;9.60;1.00;;;;;;4961479;28;20198;-64
2022/04/07 03:46:57;;;;;;;4.00;1.60;;;9.60;1.00;;;;;;4928702;28;20239;-65
2022/04/07 03:49:24;;;;;;;4.17;1.93;;;9.60;1.00;;;;;;4961743;28;20258;-65
2022/04/07 03:51:54;;;;;;;2.97;1.83;;;9.60;1.00;;;;;;4936880;28;20262;-64
2022/04/07 03:54:27;;;;;;;4.87;1.73;;;9.70;1.00;;;;;;4953693;28;20224;-65
2022/04/07 03:56:54;;;;;;;4.60;2.00;;;9.70;1.00;;;;;;4961661;28;20198;-65
2022/04/07 03:59:21;;;;;;;2.33;1.50;;;9.70;1.00;;;;;;4944203;28;20221;-63
2022/04/07 04:01:48;;;;;;;3.60;1.53;;;9.70;1.00;;;;;;4947630;28;20230;-64
2022/04/07 04:04:17;;;;;;;3.33;1.47;;;9.70;1.00;;;;;;4964256;28;20207;-65
2022/04/07 04:06:45;;;;;;;3.50;2.13;;;9.70;1.00;;;;;;4954073;28;20202;-65
2022/04/07 04:09:12;;;;;;;5.27;1.60;;;9.70;1.00;;;;;;4948885;28;20194;-66
2022/04/07 04:11:41;;;;;;;3.50;1.87;;;9.70;1.00;;;;;;4965174;28;20307;-64
2022/04/07 04:14:11;;;;;;;4.23;1.70;;;9.80;1.00;;;;;;4950253;28;20249;-64
2022/04/07 04:16:38;;;;;;;3.50;1.60;;;9.80;1.00;;;;;;4967268;28;20215;-65
2022/04/07 04:19:07;;;;;;;4.50;1.70;;;9.80;1.00;;;;;;4948258;28;20677;-63
2022/04/07 04:21:34;;;;;;;2.93;1.50;;;9.90;1.00;;;;;;4931864;28;20222;-64
2022/04/07 04:24:02;;;;;;;6.33;1.80;;;9.90;1.00;;;;;;4955930;28;20206;-66
2022/04/07 04:26:30;;;;;;;4.30;1.73;;;10.00;1.00;;;;;;4930694;28;20301;-64
2022/04/07 04:28:57;;;;;;;2.80;1.50;;;10.10;1.00;;;;;;4929305;28;20215;-65
2022/04/07 04:31:24;;;;;;;6.80;2.20;;;10.10;99.90;;;;;;4965831;28;20198;-65
2022/04/07 04:33:52;;;;;;;5.13;1.73;;;10.10;99.90;;;;;;4948116;28;20218;-65
2022/04/07 04:36:19;;;;;;;3.83;1.93;;;10.10;99.90;;;;;;4946933;28;20202;-66
2022/04/07 04:38:47;;;;;;;7.03;1.80;;;10.10;99.90;;;;;;4966103;28;20907;-66
2022/04/07 04:41:17;;;;;;;3.73;1.67;;;10.00;99.90;;;;;;4945206;28;20290;-66
2022/04/07 04:43:44;;;;;;;8.00;2.73;;;10.00;99.90;;;;;;4963100;28;20194;-66
2022/04/07 04:46:12;;;;;;;5.43;1.77;;;10.00;99.90;;;;;;4964742;28;20258;-67
2022/04/07 04:48:41;;;;;;;6.77;1.77;;;10.00;99.90;;;;;;4931756;28;20198;-66
2022/04/07 04:51:08;;;;;;;3.23;1.80;;;10.00;99.90;;;;;;4954245;28;20605;-65
2022/04/07 04:53:37;;;;;;;6.17;1.97;;;10.10;99.90;;;;;;4951235;28;20682;-65
2022/04/07 04:56:06;;;;;;;3.70;2.00;;;10.10;99.90;;;;;;4964590;28;20205;-67
2022/04/07 04:58:33;;;;;;;6.70;2.30;;;10.20;99.90;;;;;;4930283;28;20250;-66
2022/04/07 05:01:00;;;;;;;5.17;2.27;;;10.20;99.90;;;;;;4964426;28;20193;-66
2022/04/07 05:03:27;;;;;;;4.40;1.87;;;10.10;99.90;;;;;;4964043;28;20669;-67
2022/04/07 05:05:55;;;;;;;3.67;1.53;;;10.20;99.90;;;;;;4961177;28;20230;-67
2022/04/07 05:08:22;;;;;;;7.90;2.07;;;10.10;99.90;;;;;;4947073;28;20681;-67
2022/04/07 05:10:49;;;;;;;6.50;2.30;;;10.20;99.90;;;;;;4963707;28;20575;-67
2022/04/07 05:13:17;;;;;;;6.30;2.23;;;10.20;99.90;;;;;;4966921;28;20207;-66
2022/04/07 05:15:44;;;;;;;5.07;1.70;;;10.40;73.90;;;;;;4952303;28;20230;-66
2022/04/07 05:18:11;;;;;;;6.87;1.53;;;10.40;2.40;;;;;;4948426;28;20213;-65
2022/04/07 05:20:41;;;;;;;9.17;2.23;;;10.50;54.20;;;;;;4962749;28;20306;-67
2022/04/07 05:23:08;;;;;;;4.43;1.60;;;10.50;99.90;;;;;;4944740;28;20662;-67
2022/04/07 05:25:35;;;;;;;4.97;1.47;;;10.30;1.00;;;;;;4961814;28;20235;-66
2022/04/07 05:28:02;;;;;;;4.67;1.70;;;10.10;1.00;;;;;;4937293;28;20268;-66
2022/04/07 05:30:29;;;;;;;6.07;1.80;;;9.90;64.10;;;;;;4961500;28;20242;-65
2022/04/07 05:32:56;;;;;;;3.00;1.60;;;9.70;99.90;;;;;;4962858;28;20740;-64
2022/04/07 05:35:27;;;;;;;5.53;1.97;;;9.60;99.90;;;;;;4961701;28;20278;-64
2022/04/07 05:38:02;;;;;;;4.27;1.57;;;9.50;1.00;;;;;;4961566;28;20225;-66
2022/04/07 05:40:30;;;;;;;4.27;1.70;;;9.40;1.00;;;;;;4962341;28;20198;-66
2022/04/07 05:42:59;;;;;;;3.87;1.80;;;9.20;99.90;;;;;;4943176;28;20229;-65
2022/04/07 05:45:26;;;;;;;4.73;1.80;;;9.20;99.90;;;;;;4942963;28;20281;-65
2022/04/07 05:47:53;;;;;;;5.53;1.50;;;9.20;99.90;;;;;;4961302;28;20685;-64
2022/04/07 05:50:20;;;;;;;1.83;1.30;;;9.10;99.90;;;;;;4933136;28;20268;-64
2022/04/07 05:52:47;;;;;;;4.53;1.73;;;9.10;1.00;;;;;;4948560;28;20210;-65
2022/04/07 05:55:14;;;;;;;2.47;1.40;;;9.10;1.00;;;;;;4964520;28;20210;-64
2022/04/07 05:57:41;;;;;;;4.43;1.57;;;9.10;1.00;;;;;;4953144;28;20194;-64
2022/04/07 06:00:13;;;;;;;2.83;1.43;;;9.20;99.90;;;;;;4962675;28;20191;-65
2022/04/07 06:02:40;;;;;;;4.77;1.43;;;9.20;99.90;;;;;;4945880;28;20218;-65
2022/04/07 06:05:09;;;;;;;2.87;1.40;;;9.10;1.00;;;;;;4926179;28;20210;-64
2022/04/07 06:07:36;;;;;;;1.77;1.23;;;9.20;1.00;;;;;;4956356;28;20214;-65
2022/04/07 06:10:07;;;;;;;2.70;1.30;;;9.30;99.90;;;;;;4942025;28;20211;-65
2022/04/07 06:12:34;;;;;;;2.97;1.50;;;9.40;99.90;;;;;;4943031;28;20377;-65
2022/04/07 06:15:01;;;;;;;1.33;1.20;;;9.40;99.90;;;;;;4959375;28;20249;-65
2022/04/07 06:17:36;;;;;;;1.57;1.13;;;9.50;1.00;;;;;;4941784;28;20681;-64
2022/04/07 06:20:03;;;;;;;2.33;1.20;;;9.60;1.00;;;;;;4941887;28;20292;-65
2022/04/07 06:22:30;;;;;;;2.07;1.20;;;9.60;1.00;;;;;;4943247;28;20748;-63
2022/04/07 06:24:57;;;;;;;1.00;0.90;;;9.70;1.00;;;;;;4948139;28;20238;-64
2022/04/07 06:27:35;;;;;;;1.40;1.27;;;9.70;1.00;;;;;;4943359;28;20229;-64
2022/04/07 06:30:09;;;;;;;2.20;1.10;;;9.90;1.00;;;;;;4953801;28;20215;-64
2022/04/07 06:32:37;;;;;;;1.33;0.93;;;10.20;99.90;;;;;;4954455;28;20753;-65
2022/04/07 06:35:05;;;;;;;1.23;1.03;;;10.30;91.60;;;;;;4959216;28;20209;-63
2022/04/07 06:37:43;;;;;;;1.03;0.93;;;10.30;99.90;;;;;;4941824;28;20202;-63
2022/04/07 06:40:11;;;;;;;1.17;1.00;;;10.70;99.90;;;;;;4926393;28;20202;-68
2022/04/07 06:42:38;;;;;;;1.07;0.80;;;11.10;1.00;;;;;;4927207;28;20199;-63
2022/04/07 06:45:06;;;;;;;0.63;0.63;;;11.10;1.00;;;;;;4944001;28;20198;-66
2022/04/07 06:47:51;;;;;;;0.80;0.80;;;11.00;1.00;;;;;;4945741;28;20194;-64
2022/04/07 06:50:20;;;;;;;1.37;0.83;;;10.80;1.00;;;;;;4953432;28;20749;-65
2022/04/07 06:52:48;;;;;;;0.90;0.90;;;10.50;10.10;;;;;;4928595;28;20202;-64
2022/04/07 06:55:16;;;;;;;2.10;1.00;;;10.40;1.00;;;;;;4959527;28;20269;-64
2022/04/07 06:57:53;;;;;;;2.30;1.20;;;10.20;99.90;;;;;;4959273;28;20203;-65
2022/04/07 07:00:22;;;;;;;2.73;0.97;;;10.10;1.00;;;;;;4942840;28;20198;-62
2022/04/07 07:02:52;;;;;;;0.93;0.90;;;10.10;1.00;;;;;;4942880;28;20210;-64
2022/04/07 07:05:21;;;;;;;2.13;1.30;;;10.00;1.00;;;;;;4942305;28;20329;-64
2022/04/07 07:07:48;;;;;;;1.23;0.90;;;10.00;1.00;;;;;;4950287;28;20265;-64
2022/04/07 07:10:25;;;;;;;2.27;1.33;;;9.90;1.00;;;;;;4958940;28;20202;-64
2022/04/07 07:12:52;;;;;;;1.70;1.30;;;10.00;1.00;;;;;;4943095;28;20206;-64
2022/04/07 07:15:23;;;;;;;2.60;1.10;;;10.10;1.00;;;;;;4960882;28;20225;-65
2022/04/07 07:17:51;;;;;;;1.77;1.20;;;10.20;1.00;;;;;;4930378;28;20225;-64
2022/04/07 07:20:19;;;;;;;2.23;1.10;;;10.50;99.90;;;;;;4951670;28;20921;-65
2022/04/07 07:22:46;;;;;;;1.13;1.03;;;11.10;73.50;;;;;;4932458;28;20206;-67
2022/04/07 07:25:13;;;;;;;0.90;0.90;;;11.60;1.00;;;;;;4949282;28;20246;-66
2022/04/07 07:27:41;;;;;;;1.90;1.00;;;12.00;1.00;;;;;;4932403;28;20207;-66
2022/04/07 07:30:10;;;;;;;1.00;0.80;;;11.70;1.00;;;;;;4959116;28;20226;-67
2022/04/07 07:32:40;;;;;;;1.13;0.80;;;11.40;1.00;;;;;;4941212;28;20210;-64
2022/04/07 07:35:09;;;;;;;1.50;0.80;;;11.10;1.00;;;;;;4937373;28;20254;-65
2022/04/07 07:37:37;;;;;;;1.60;0.90;;;10.80;1.00;;;;;;4948206;28;20596;-65
2022/04/07 07:40:08;;;;;;;1.13;0.90;;;10.70;1.00;;;;;;4963053;28;20761;-65
2022/04/07 07:42:38;;;;;;;2.00;1.00;;;10.60;99.90;;;;;;4963804;28;21130;-68
2022/04/07 07:45:06;;;;;;;1.73;0.80;;;10.50;99.90;;;;;;4932831;28;20215;-65
2022/04/07 07:47:33;;;;;;;1.37;0.90;;;10.50;99.90;;;;;;4948500;28;20229;-65
2022/04/07 07:50:04;;;;;;;1.30;0.90;;;10.40;99.90;;;;;;4964105;28;20384;-62
2022/04/07 07:52:31;;;;;;;1.77;1.00;;;10.20;1.00;;;;;;4951255;28;20292;-63
2022/04/07 07:54:58;;;;;;;3.80;0.97;;;10.10;1.00;;;;;;4965020;28;20226;-64
2022/04/07 07:57:25;;;;;;;1.23;1.13;;;10.00;1.00;;;;;;4948857;28;20202;-63
2022/04/07 07:59:53;;;;;;;2.10;1.20;;;9.90;1.00;;;;;;4947876;28;20704;-63
2022/04/07 08:02:20;;;;;;;1.87;1.07;;;9.80;99.90;;;;;;4950083;28;20190;-64
2022/04/07 08:04:47;;;;;;;1.43;1.00;;;9.70;1.00;;;;;;4948929;28;20524;-62
2022/04/07 08:07:14;;;;;;;1.10;0.90;;;9.60;99.90;;;;;;4935280;28;20252;-62
2022/04/07 08:09:41;;;;;;;2.57;1.07;;;9.60;1.00;;;;;;4952277;28;20254;-63
2022/04/07 08:12:10;;;;;;;2.93;1.20;;;9.50;99.90;;;;;;4932873;28;20214;-63
2022/04/07 08:14:37;;;;;;;1.93;1.20;;;9.50;99.90;;;;;;4948460;28;20261;-62
2022/04/07 08:17:04;;;;;;;3.03;1.30;;;9.50;99.90;;;;;;4953351;28;20206;-62
2022/04/07 08:19:37;;;;;;;1.20;1.10;;;9.50;99.90;;;;;;4964840;28;20187;-62
2022/04/07 08:22:05;;;;;;;1.50;1.10;;;9.80;1.00;;;;;;4942804;28;20230;-62
2022/04/07 08:24:32;;;;;;;1.23;0.80;;;9.80;99.90;;;;;;4958318;28;20222;-62
2022/04/07 08:26:59;;;;;;;3.10;1.50;;;9.80;1.00;;;;;;4927131;28;20269;-64
2022/04/07 08:29:26;;;;;;;2.30;1.00;;;10.00;99.90;;;;;;4959076;28;20261;-63
2022/04/07 08:31:53;;;;;;;3.10;2.10;;;10.20;1.00;;;;;;4958471;28;20573;-61
2022/04/07 08:34:20;;;;;;;2.67;1.27;;;10.00;99.90;;;;;;4944578;28;20223;-62
2022/04/07 08:36:48;;;;;;;1.73;1.63;;;9.90;99.90;;;;;;4958448;28;20246;-62
2022/04/07 08:39:14;;;;;;;1.17;1.07;;;9.70;74.50;;;;;;4942059;28;20194;-62
2022/04/07 08:41:45;;;;;;;2.17;1.07;;;9.50;99.90;;;;;;4962436;28;20185;-62
2022/04/07 08:44:15;;;;;;;3.43;1.20;;;9.30;99.90;;;;;;4962028;28;20194;-62
2022/04/07 08:46:48;;;;;;;0.93;0.93;;;9.50;1.00;;;;;;4942567;28;20286;-62
2022/04/07 08:49:17;;;;;;;1.07;0.90;;;9.70;99.90;;;;;;4965236;28;20295;-62
2022/04/07 08:51:46;;;;;;;0.80;0.80;;;9.90;1.00;;;;;;4961542;28;20226;-62
2022/04/07 08:54:14;;;;;;;2.10;0.83;;;10.10;1.00;;;;;;4957277;28;20202;-62
2022/04/07 08:56:41;;;;;;;1.10;0.80;;;10.20;99.90;;;;;;4960338;28;20199;-64
2022/04/07 08:59:08;;;;;;;2.80;0.90;;;10.30;23.70;;;;;;4961154;28;20199;-63
2022/04/07 09:01:35;;;;;;;1.83;0.90;;;10.40;43.90;;;;;;4960123;28;20597;-63
2022/04/07 09:04:02;;;;;;;1.03;0.90;;;10.60;1.00;;;;;;4948776;28;20725;-62
2022/04/07 09:06:33;;;;;;;2.77;0.63;;;10.70;1.00;;;;;;4951254;28;20246;-62
2022/04/07 09:09:11;;;;;;;1.13;0.70;;;10.70;1.00;;;;;;4961576;28;20195;-63
2022/04/07 09:11:41;;;;;;;0.80;0.80;;;10.60;1.00;;;;;;4959671;28;20195;-63
2022/04/07 09:14:10;;;;;;;1.47;0.70;;;10.60;99.90;;;;;;4925881;28;20203;-63
2022/04/07 09:16:39;;;;;;;0.60;0.60;;;10.30;99.90;;;;;;4961276;28;20683;-62
2022/04/07 09:19:08;;;;;;;0.80;0.80;;;10.20;99.90;;;;;;4959450;28;20277;-62
2022/04/07 09:21:36;;;;;;;1.70;1.00;;;10.20;99.90;;;;;;4939484;28;20297;-63
2022/04/07 09:24:07;;;;;;;1.03;0.90;;;10.20;1.00;;;;;;4936018;28;20202;-63
2022/04/07 09:26:42;;;;;;;1.07;0.60;;;10.40;99.90;;;;;;4961383;28;20213;-62
2022/04/07 09:29:11;;;;;;;0.60;0.60;;;10.40;1.00;;;;;;4956934;28;20536;-63
2022/04/07 09:31:50;;;;;;;0.80;0.80;;;10.60;1.00;;;;;;4942921;28;20223;-63
2022/04/07 09:34:32;;;;;;;0.53;0.53;;;10.80;99.90;;;;;;4962536;28;20226;-65
2022/04/07 09:37:07;;;;;;;1.30;1.20;;;11.20;1.00;;;;;;4953738;28;20877;-64
2022/04/07 09:39:36;;;;;;;2.37;0.80;;;11.50;1.00;;;;;;4959231;28;20657;-64
2022/04/07 09:42:25;;;;;;;1.80;1.40;;;11.50;1.00;;;;;;4943670;28;20199;-64
2022/04/07 09:44:59;;;;;;;2.03;1.20;;;11.30;1.00;;;;;;4941794;28;20218;-64
2022/04/07 09:47:41;;;;;;;1.17;0.80;;;11.10;99.90;;;;;;4950461;28;20206;-64
2022/04/07 09:50:19;;;;;;;2.33;0.93;;;11.00;99.90;;;;;;4960398;28;20194;-64
2022/04/07 09:53:03;;;;;;;1.17;0.60;;;10.10;1.00;;;;;;4956943;28;20293;-63
2022/04/07 09:55:41;;;;;;;1.43;0.83;;;9.00;1.00;;;;;;4940250;28;20215;-62
2022/04/07 09:58:11;;;;;;;1.57;0.80;;;8.70;1.00;;;;;;4944926;28;20537;-64
2022/04/07 10:00:42;;;;;;;1.67;0.90;;;8.70;99.10;;;;;;4944650;28;20276;-64
2022/04/07 10:03:10;;;;;;;2.13;1.00;;;8.80;99.90;;;;;;4937545;28;20253;-65
2022/04/07 10:05:38;;;;;;;2.03;0.90;;;8.90;99.90;;;;;;4955340;28;20542;-64
2022/04/07 10:08:06;;;;;;;3.90;1.10;;;8.80;99.90;;;;;;4957622;28;20269;-65
2022/04/07 10:10:37;;;;;;;3.27;1.10;;;8.80;1.00;;;;;;4962107;28;20313;-64
2022/04/07 10:13:04;;;;;;;0.80;0.80;;;8.80;99.90;;;;;;4959493;28;20253;-65
2022/04/07 10:15:32;;;;;;;0.70;0.70;;;8.70;99.90;;;;;;4957387;28;20250;-64
2022/04/07 10:18:04;;;;;;;2.90;1.10;;;8.50;1.00;;;;;;4946345;28;20194;-65
2022/04/07 10:20:35;;;;;;;1.77;0.97;;;8.40;99.90;;;;;;4941967;28;20257;-65
2022/04/07 10:23:24;;;;;;;4.57;1.20;;;8.30;1.00;;;;;;4941970;28;20198;-64
2022/04/07 10:25:52;;;;;;;1.47;1.00;;;8.40;99.90;;;;;;4962575;28;20245;-65
2022/04/07 10:28:19;;;;;;;1.27;1.10;;;8.60;37.00;;;;;;4959541;28;20198;-65
2022/04/07 10:30:52;;;;;;;0.90;0.80;;;8.80;1.00;;;;;;4948357;28;20712;-64
2022/04/07 10:33:43;;;;;;;0.80;0.80;;;8.70;1.00;;;;;;4960321;28;20720;-64
2022/04/07 10:36:18;;;;;;;0.97;0.90;;;8.80;1.00;;;;;;4964318;28;20209;-64
2022/04/07 10:38:47;;;;;;;3.13;1.10;;;9.30;1.00;;;;;;4943000;28;20212;-66
2022/04/07 10:41:36;;;;;;;2.00;1.40;;;9.50;99.90;;;;;;4937928;28;20187;-67
2022/04/07 10:44:13;;;;;;;1.60;1.40;;;9.80;99.90;;;;;;4958538;28;20182;-65
2022/04/07 10:46:41;;;;;;;1.50;1.33;;;10.10;99.90;;;;;;4942497;28;20245;-66
2022/04/07 10:49:09;;;;;;;4.00;1.80;;;10.10;1.00;;;;;;4947825;28;20321;-65
2022/04/07 10:51:42;;;;;;;4.20;1.63;;;10.10;1.00;;;;;;4941127;28;20243;-66
2022/04/07 10:54:10;;;;;;;2.00;1.80;;;10.00;1.00;;;;;;4941156;28;20293;-65
2022/04/07 10:56:41;;;;;;;2.00;1.80;;;10.10;1.00;;;;;;4943605;28;20233;-64
2022/04/07 10:59:24;;;;;;;1.77;1.50;;;10.50;1.00;;;;;;4955451;28;20194;-65
2022/04/07 11:02:04;;;;;;;2.23;1.77;;;10.80;99.90;;;;;;4939032;28;20619;-65
2022/04/07 11:04:40;;;;;;;2.83;1.83;;;11.10;99.90;;;;;;4941781;28;20222;-65
2022/04/07 11:07:16;;;;;;;1.77;1.67;;;11.50;99.90;;;;;;4951762;28;20198;-66
2022/04/07 11:10:05;;;;;;;2.53;2.13;;;12.10;1.00;;;;;;4955465;28;20288;-66
2022/04/07 11:12:34;;;;;;;2.13;1.70;;;12.20;1.00;;;;;;4957102;28;20206;-65
2022/04/07 11:15:02;;;;;;;6.10;2.13;;;12.30;1.00;;;;;;4955830;28;20234;-65
2022/04/07 11:17:36;;;;;;;2.43;1.87;;;12.70;1.00;;;;;;4941860;28;20819;-65
2022/04/07 11:20:05;;;;;;;2.83;2.20;;;13.30;99.90;;;;;;4955722;28;20328;-65
2022/04/07 11:23:05;;;;;;;3.90;2.83;;;13.20;1.00;;;;;;4961514;28;20763;-65
2022/04/07 11:25:34;;;;;;;4.17;2.93;;;13.20;99.90;;;;;;4965653;28;20238;-65
2022/04/07 11:28:14;;;;;;;5.40;3.43;;;12.80;99.90;;;;;;4944179;28;20234;-65
2022/04/07 11:31:04;;;;;;;3.50;3.10;;;12.90;99.90;;;;;;4949862;28;20294;-64
2022/04/07 11:33:36;;;;;;;4.30;3.00;;;13.20;99.90;;;;;;4946448;28;20191;-65
2022/04/07 11:36:03;;;;;;;3.07;2.77;;;13.40;99.90;;;;;;4945506;28;20218;-66
2022/04/07 11:38:33;;;;;;;3.07;2.50;;;13.90;99.90;;;;;;4953249;28;20226;-65
2022/04/07 11:41:11;;;;;;;2.90;1.90;;;15.30;10.20;;;;;;4958932;28;20655;-66
2022/04/07 11:43:45;;;;;;;5.70;1.70;;;15.50;1.00;;;;;;4955794;28;20198;-65
2022/04/07 11:46:32;;;;;;;3.80;2.10;;;16.50;99.90;;;;;;4944474;28;20293;-65
2022/04/07 11:49:00;;;;;;;2.05;1.50;;;16.10;99.90;;;;;;4945166;28;20724;-66
2022/04/07 11:51:28;;;;;;;2.67;1.50;;;15.80;58.50;;;;;;4932788;28;20206;-66
2022/04/07 11:53:56;;;;;;;1.90;1.52;;;15.80;99.90;;;;;;4931476;28;20206;-65
2022/04/07 11:56:27;;;;;;;2.08;1.40;;;15.60;99.90;;;;;;4959487;28;20609;-65
2022/04/07 11:59:01;;;;;;;1.77;1.20;;;15.50;1.00;;;;;;4933841;28;20282;-65
2022/04/07 12:01:28;;;;;;;5.20;1.60;;;16.50;1.00;;;;;;4960435;28;20716;-65
2022/04/07 12:04:00;;;;;;;2.88;1.50;;;17.00;1.00;;;;;;4956198;28;20304;-66
2022/04/07 12:06:33;;;;;;;3.42;1.55;;;16.50;1.00;;;;;;4952422;28;20210;-66
2022/04/07 12:09:03;;;;;;;4.65;1.88;;;15.10;1.00;;;;;;4959792;28;20194;-65
2022/04/07 12:11:33;;;;;;;2.33;1.50;;;13.90;1.00;;;;;;4962518;28;20634;-66
2022/04/07 12:14:08;;;;;;;2.87;1.73;;;13.50;1.00;;;;;;4941947;28;20245;-65
2022/04/07 12:16:41;;;;;;;2.33;1.83;;;13.20;82.70;;;;;;4959446;28;20206;-65
2022/04/07 12:19:09;;;;;;;2.13;1.70;;;12.80;1.00;;;;;;4958621;28;20661;-65
2022/04/07 12:21:56;;;;;;;2.87;1.90;;;12.80;99.90;;;;;;4942417;28;20214;-65
2022/04/07 12:24:28;;;;;;;2.10;1.90;;;12.60;99.90;;;;;;4947407;28;20206;-66
2022/04/07 12:26:59;;;;;;;6.37;2.20;;;12.60;99.90;;;;;;4934287;28;20206;-66
2022/04/07 12:29:31;;;;;;;2.27;1.90;;;12.60;91.70;;;;;;4965698;28;20446;-66
2022/04/07 12:32:00;;;;;;;3.63;2.27;;;12.60;99.90;;;;;;4948496;28;20198;-66
2022/04/07 12:34:28;;;;;;;3.43;1.90;;;12.50;99.90;;;;;;4928688;28;20633;-65
2022/04/07 12:36:55;;;;;;;5.50;1.80;;;12.50;1.00;;;;;;4941202;28;20218;-65
2022/04/07 12:39:42;;;;;;;3.93;1.60;;;13.40;50.10;;;;;;4944490;28;20207;-65
2022/04/07 12:42:09;;;;;;;4.53;1.60;;;14.60;1.00;;;;;;4948698;28;20199;-65
2022/04/07 12:44:43;;;;;;;3.23;1.30;;;15.10;1.00;;;;;;4951962;28;20206;-65
2022/04/07 12:47:13;;;;;;;6.33;1.80;;;15.00;1.00;;;;;;4964906;28;20202;-65
2022/04/07 12:49:54;;;;;;;5.47;1.53;;;14.20;1.00;;;;;;4958127;28;20194;-66
2022/04/07 12:52:35;;;;;;;2.20;1.07;;;13.90;1.00;;;;;;4929755;28;20445;-65
2022/04/07 12:55:06;;;;;;;6.70;1.70;;;13.50;1.00;;;;;;4942173;28;20207;-65
2022/04/07 12:57:38;;;;;;;7.90;1.90;;;13.20;1.00;;;;;;4940591;28;20219;-67
2022/04/07 13:00:25;;;;;;;4.23;1.47;;;12.90;1.00;;;;;;4941194;28;20289;-65
2022/04/07 13:02:53;;;;;;;4.93;1.50;;;12.50;1.00;;;;;;4948946;28;21240;-64
2022/04/07 13:05:25;;;;;;;5.10;1.87;;;11.90;1.00;;;;;;4935295;28;20202;-65
2022/04/07 13:08:03;;;;;;;9.90;2.17;;;11.70;1.00;;;;;;4939595;28;21089;-64
2022/04/07 13:10:31;;;;;;;7.67;1.87;;;11.40;1.00;;;;;;4944431;28;20198;-65
2022/04/07 13:12:59;;;;;;;3.60;1.27;;;11.20;99.90;;;;;;4956395;28;20225;-64